createdAt,value
2018-04-30T00:00:36.190Z,72.46
2018-04-30T00:03:40.361Z,71.76
2018-04-30T00:06:43.677Z,71.75
2018-04-30T00:09:47.067Z,71.79
2018-04-30T00:12:51.096Z,71.38
2018-04-30T00:15:55.908Z,71.31
2018-04-30T00:18:59.225Z,70.89
2018-04-30T00:22:02.548Z,70.93
2018-04-30T00:25:05.911Z,71.06
2018-04-30T00:28:09.304Z,71.25
2018-04-30T00:31:12.669Z,70.89
2018-04-30T00:34:16.005Z,70.97
2018-04-30T00:37:19.410Z,71.65
2018-04-30T00:40:22.812Z,71.08
2018-04-30T00:43:26.210Z,71.97
2018-04-30T00:46:29.601Z,72.00
2018-04-30T00:49:33.011Z,72.21
2018-04-30T00:52:36.410Z,72.21
2018-04-30T00:55:39.814Z,72.32
2018-04-30T00:58:43.215Z,72.24
2018-04-30T01:01:46.705Z,72.36
2018-04-30T01:04:50.003Z,72.79
2018-04-30T01:07:53.332Z,72.50
2018-04-30T01:10:56.696Z,72.75
2018-04-30T01:14:00.024Z,72.90
2018-04-30T01:17:03.409Z,72.72
2018-04-30T01:20:06.816Z,72.81
2018-04-30T01:23:10.132Z,72.67
2018-04-30T01:26:14.200Z,72.67
2018-04-30T01:29:17.618Z,72.52
2018-04-30T01:32:20.945Z,72.36
2018-04-30T01:35:24.307Z,72.36
2018-04-30T01:38:27.621Z,72.24
2018-04-30T01:41:31.061Z,72.26
2018-04-30T01:44:34.346Z,72.08
2018-04-30T01:47:38.429Z,72.61
2018-04-30T01:50:41.824Z,72.82
2018-04-30T01:53:45.150Z,72.90
2018-04-30T01:56:48.489Z,73.21
2018-04-30T01:59:51.798Z,73.60
2018-04-30T02:02:55.141Z,73.79
2018-04-30T02:05:58.522Z,74.01
2018-04-30T02:09:01.925Z,74.45
2018-04-30T02:12:05.318Z,74.71
2018-04-30T02:15:08.713Z,75.16
2018-04-30T02:18:12.041Z,75.33
2018-04-30T02:21:16.108Z,75.55
2018-04-30T02:24:19.532Z,75.62
2018-04-30T02:27:22.932Z,75.85
2018-04-30T02:30:26.238Z,76.00
2018-04-30T02:33:29.594Z,76.50
2018-04-30T02:36:32.931Z,76.66
2018-04-30T02:39:36.324Z,76.62
2018-04-30T02:42:39.639Z,76.98
2018-04-30T02:45:43.033Z,76.90
2018-04-30T02:48:46.430Z,77.21
2018-04-30T02:51:49.818Z,77.15
2018-04-30T02:54:53.245Z,77.37
2018-04-30T02:57:56.621Z,77.46
2018-04-30T03:00:59.943Z,77.66
2018-04-30T03:04:03.326Z,78.00
2018-04-30T03:07:06.650Z,78.20
2018-04-30T03:10:10.030Z,78.24
2018-04-30T03:13:13.424Z,78.58
2018-04-30T03:16:16.725Z,78.58
2018-04-30T03:19:20.112Z,78.65
2018-04-30T03:22:23.530Z,78.63
2018-04-30T03:25:26.850Z,78.60
2018-04-30T03:28:30.173Z,78.85
2018-04-30T03:31:33.513Z,78.82
2018-04-30T03:34:36.838Z,78.74
2018-04-30T03:37:40.158Z,78.82
2018-04-30T03:40:44.328Z,78.88
2018-04-30T03:43:47.728Z,78.80
2018-04-30T03:46:51.139Z,78.82
2018-04-30T03:49:54.538Z,78.96
2018-04-30T03:52:57.865Z,78.80
2018-04-30T03:56:01.940Z,78.89
2018-04-30T03:59:05.266Z,78.95
2018-04-30T04:02:26.457Z,78.87
2018-04-30T04:05:47.786Z,78.93
2018-04-30T04:08:51.168Z,79.05
2018-04-30T04:11:54.568Z,78.70
2018-04-30T04:14:57.901Z,78.74
2018-04-30T04:18:01.221Z,78.65
2018-04-30T04:21:05.389Z,78.38
2018-04-30T04:24:08.793Z,78.15
2018-04-30T04:27:12.099Z,78.14
2018-04-30T04:30:15.416Z,78.05
2018-04-30T04:33:18.734Z,78.14
2018-04-30T04:36:23.208Z,77.88
2018-04-30T04:39:26.617Z,77.95
2018-04-30T04:42:30.016Z,77.90
2018-04-30T04:45:33.416Z,77.29
2018-04-30T04:48:36.746Z,76.82
2018-04-30T04:51:41.640Z,76.76
2018-04-30T04:54:45.041Z,76.39
2018-04-30T04:57:48.361Z,75.66
2018-04-30T05:00:51.701Z,75.36
2018-04-30T05:03:55.043Z,75.01
2018-04-30T05:06:58.448Z,74.95
2018-04-30T05:10:01.862Z,74.73
2018-04-30T05:13:05.241Z,74.79
2018-04-30T05:16:08.636Z,74.53
2018-04-30T05:19:11.968Z,74.53
2018-04-30T05:22:15.290Z,74.42
2018-04-30T05:25:19.474Z,74.66
2018-04-30T05:28:22.917Z,74.30
2018-04-30T05:31:26.231Z,74.27
2018-04-30T05:34:29.552Z,73.85
2018-04-30T05:37:32.954Z,73.72
2018-04-30T05:40:36.294Z,73.54
2018-04-30T05:43:40.395Z,73.09
2018-04-30T05:46:43.787Z,72.99
2018-04-30T05:49:47.170Z,72.75
2018-04-30T05:52:50.491Z,72.58
2018-04-30T05:55:53.804Z,72.63
2018-04-30T05:58:57.903Z,71.90
2018-04-30T06:02:01.283Z,72.59
2018-04-30T06:05:04.632Z,72.79
2018-04-30T06:08:08.794Z,72.95
2018-04-30T06:11:12.212Z,72.97
2018-04-30T06:14:15.548Z,73.36
2018-04-30T06:17:19.625Z,73.55
2018-04-30T06:20:23.009Z,73.07
2018-04-30T06:23:27.232Z,72.56
2018-04-30T06:26:30.638Z,72.39
2018-04-30T06:29:34.030Z,72.58
2018-04-30T06:32:37.489Z,72.15
2018-04-30T06:35:40.837Z,71.78
2018-04-30T06:38:44.175Z,71.77
2018-04-30T06:41:48.373Z,71.58
2018-04-30T06:44:51.757Z,71.78
2018-04-30T06:47:55.077Z,72.13
2018-04-30T06:50:58.411Z,73.37
2018-04-30T06:54:01.721Z,74.32
2018-04-30T06:57:05.149Z,76.20
2018-04-30T07:00:08.465Z,76.87
2018-04-30T07:03:11.837Z,77.89
2018-04-30T07:06:15.261Z,78.67
2018-04-30T07:09:18.707Z,77.29
2018-04-30T07:12:22.032Z,77.00
2018-04-30T07:15:25.369Z,76.76
2018-04-30T07:18:28.682Z,75.74
2018-04-30T07:21:32.845Z,75.73
2018-04-30T07:24:36.159Z,74.30
2018-04-30T07:27:39.563Z,73.75
2018-04-30T07:30:43.673Z,75.17
2018-04-30T07:33:47.072Z,76.67
2018-04-30T07:36:50.393Z,78.27
2018-04-30T07:39:53.762Z,78.11
2018-04-30T07:42:57.181Z,78.46
2018-04-30T07:46:00.521Z,78.32
2018-04-30T07:49:03.871Z,79.41
2018-04-30T07:52:07.286Z,79.50
2018-04-30T07:55:10.661Z,81.82
2018-04-30T07:58:14.058Z,83.63
2018-04-30T08:01:17.473Z,83.67
2018-04-30T08:04:20.866Z,83.42
2018-04-30T08:07:24.176Z,82.77
2018-04-30T08:10:27.569Z,83.39
2018-04-30T08:13:30.966Z,79.52
2018-04-30T08:16:34.355Z,81.18
2018-04-30T08:19:37.718Z,82.89
2018-04-30T08:22:41.061Z,84.33
2018-04-30T08:25:44.457Z,84.48
2018-04-30T08:28:47.987Z,84.67
2018-04-30T08:31:51.368Z,85.58
2018-04-30T08:34:54.691Z,86.63
2018-04-30T08:37:58.052Z,86.38
2018-04-30T08:41:01.399Z,85.73
2018-04-30T08:44:05.670Z,86.22
2018-04-30T08:47:09.012Z,86.31
2018-04-30T08:50:12.326Z,86.67
2018-04-30T08:53:16.608Z,86.12
2018-04-30T08:56:20.020Z,86.30
2018-04-30T08:59:23.397Z,85.62
2018-04-30T09:02:26.722Z,85.97
2018-04-30T09:05:30.825Z,85.82
2018-04-30T09:08:34.165Z,85.05
2018-04-30T09:11:37.619Z,84.04
2018-04-30T09:14:40.932Z,83.12
2018-04-30T09:17:44.312Z,83.13
2018-04-30T09:20:47.708Z,82.67
2018-04-30T09:23:51.037Z,82.55
2018-04-30T09:26:54.372Z,82.67
2018-04-30T09:29:57.714Z,83.00
2018-04-30T09:33:01.101Z,83.30
2018-04-30T09:36:04.493Z,83.55
2018-04-30T09:39:07.817Z,83.56
2018-04-30T09:42:11.192Z,84.74
2018-04-30T09:45:14.521Z,85.02
2018-04-30T09:48:17.907Z,82.94
2018-04-30T09:51:21.311Z,83.49
2018-04-30T09:54:25.512Z,83.69
2018-04-30T09:57:28.934Z,84.60
2018-04-30T10:00:32.314Z,83.87
2018-04-30T10:03:35.649Z,83.68
2018-04-30T10:06:39.761Z,82.82
2018-04-30T10:09:43.129Z,82.29
2018-04-30T10:12:46.537Z,80.70
2018-04-30T10:15:49.854Z,79.76
2018-04-30T10:18:53.192Z,80.18
2018-04-30T10:21:56.510Z,80.12
2018-04-30T10:24:59.848Z,79.13
2018-04-30T10:28:03.162Z,79.19
2018-04-30T10:31:07.269Z,78.65
2018-04-30T10:34:10.599Z,78.27
2018-04-30T10:37:13.942Z,77.98
2018-04-30T10:40:17.966Z,77.91
2018-04-30T10:43:21.363Z,78.38
2018-04-30T10:46:24.747Z,77.91
2018-04-30T10:49:28.131Z,77.77
2018-04-30T10:52:31.465Z,77.88
2018-04-30T10:55:35.661Z,78.27
2018-04-30T10:58:38.970Z,77.32
2018-04-30T11:01:42.427Z,78.34
2018-04-30T11:04:45.781Z,78.14
2018-04-30T11:07:49.189Z,78.57
2018-04-30T11:10:52.502Z,77.57
2018-04-30T11:13:56.612Z,79.17
2018-04-30T11:17:00.825Z,79.28
2018-04-30T11:20:04.179Z,78.90
2018-04-30T11:23:07.504Z,78.45
2018-04-30T11:26:10.917Z,78.59
2018-04-30T11:29:14.297Z,78.85
2018-04-30T11:32:17.693Z,78.82
2018-04-30T11:35:21.025Z,77.98
2018-04-30T11:38:25.146Z,79.03
2018-04-30T11:41:29.345Z,77.97
2018-04-30T11:44:32.720Z,79.19
2018-04-30T11:47:36.071Z,79.00
2018-04-30T11:50:39.429Z,77.65
2018-04-30T11:53:42.777Z,78.16
2018-04-30T11:56:46.128Z,77.92
2018-04-30T11:59:49.590Z,77.38
2018-04-30T12:02:53.028Z,77.12
2018-04-30T12:05:57.977Z,77.46
2018-04-30T12:09:01.335Z,76.81
2018-04-30T12:12:07.292Z,77.30
2018-04-30T12:15:10.672Z,78.56
2018-04-30T12:18:14.084Z,77.68
2018-04-30T12:21:17.528Z,78.36
2018-04-30T12:24:20.924Z,78.61
2018-04-30T12:27:24.321Z,78.86
2018-04-30T12:30:27.652Z,78.19
2018-04-30T12:33:31.849Z,78.49
2018-04-30T12:36:35.251Z,78.47
2018-04-30T12:39:38.633Z,79.24
2018-04-30T12:42:42.078Z,78.95
2018-04-30T12:45:45.558Z,79.07
2018-04-30T12:48:48.888Z,78.92
2018-04-30T12:51:53.062Z,78.32
2018-04-30T12:54:56.457Z,78.38
2018-04-30T12:57:59.845Z,78.40
2018-04-30T13:01:03.257Z,77.53
2018-04-30T13:04:06.624Z,77.19
2018-04-30T13:07:09.973Z,77.61
2018-04-30T13:10:13.354Z,78.07
2018-04-30T13:13:17.497Z,78.37
2018-04-30T13:16:21.687Z,78.05
2018-04-30T13:19:25.135Z,79.20
2018-04-30T13:22:28.614Z,79.73
2018-04-30T13:25:31.981Z,80.14
2018-04-30T13:28:35.396Z,80.74
2018-04-30T13:31:39.406Z,81.53
2018-04-30T13:34:42.744Z,82.28
2018-04-30T13:37:46.936Z,83.40
2018-04-30T13:40:50.336Z,84.13
2018-04-30T13:43:53.658Z,85.27
2018-04-30T13:46:57.765Z,85.83
2018-04-30T13:50:01.080Z,85.56
2018-04-30T13:53:05.261Z,85.72
2018-04-30T13:56:08.652Z,86.02
2018-04-30T13:59:11.981Z,86.58
2018-04-30T14:02:15.301Z,86.59
2018-04-30T14:05:18.760Z,87.27
2018-04-30T14:08:22.088Z,87.24
2018-04-30T14:11:26.272Z,87.04
2018-04-30T14:14:29.602Z,87.20
2018-04-30T14:17:33.720Z,87.06
2018-04-30T14:20:37.814Z,86.94
2018-04-30T14:23:41.197Z,87.44
2018-04-30T14:26:44.517Z,87.07
2018-04-30T14:29:47.878Z,87.16
2018-04-30T14:32:51.188Z,87.54
2018-04-30T14:35:54.534Z,87.59
2018-04-30T14:38:58.715Z,87.55
2018-04-30T14:42:02.067Z,86.88
2018-04-30T14:45:05.398Z,86.64
2018-04-30T14:48:08.838Z,86.62
2018-04-30T14:51:12.179Z,86.28
2018-04-30T14:54:15.684Z,85.71
2018-04-30T14:57:19.010Z,85.79
2018-04-30T15:00:23.362Z,86.33
2018-04-30T15:03:26.734Z,86.34
2018-04-30T15:06:30.080Z,86.85
2018-04-30T15:09:34.172Z,87.27
2018-04-30T15:12:38.282Z,87.77
2018-04-30T15:15:41.725Z,88.11
2018-04-30T15:18:45.178Z,88.09
2018-04-30T15:21:48.601Z,87.43
2018-04-30T15:24:52.703Z,86.92
2018-04-30T15:27:56.030Z,86.55
2018-04-30T15:31:00.207Z,86.44
2018-04-30T15:34:03.546Z,86.27
2018-04-30T15:37:07.727Z,86.32
2018-04-30T15:40:11.043Z,86.83
2018-04-30T15:43:15.220Z,87.52
2018-04-30T15:46:18.528Z,87.87
2018-04-30T15:49:21.887Z,88.78
2018-04-30T15:52:25.231Z,88.86
2018-04-30T15:55:28.590Z,89.27
2018-04-30T15:58:31.901Z,89.02
2018-04-30T16:01:35.256Z,88.40
2018-04-30T16:04:39.340Z,88.11
2018-04-30T16:07:42.713Z,87.71
2018-04-30T16:10:46.159Z,86.79
2018-04-30T16:13:49.571Z,86.80
2018-04-30T16:16:53.778Z,87.26
2018-04-30T16:19:57.157Z,87.12
2018-04-30T16:23:00.464Z,87.13
2018-04-30T16:26:03.860Z,87.33
2018-04-30T16:29:07.180Z,87.54
2018-04-30T16:32:10.526Z,87.18
2018-04-30T16:35:13.854Z,87.13
2018-04-30T16:38:17.260Z,86.53
2018-04-30T16:41:20.579Z,86.30
2018-04-30T16:44:23.961Z,86.23
2018-04-30T16:47:28.077Z,85.33
2018-04-30T16:50:31.471Z,81.44
2018-04-30T16:53:34.764Z,80.38
2018-04-30T16:56:38.094Z,80.29
2018-04-30T16:59:42.274Z,79.80
2018-04-30T17:02:45.631Z,80.63
2018-04-30T17:05:49.017Z,80.30
2018-04-30T17:08:53.117Z,76.96
2018-04-30T17:11:56.536Z,75.86
2018-04-30T17:14:59.907Z,75.39
2018-04-30T17:18:04.018Z,74.31
2018-04-30T17:21:07.359Z,71.23
2018-04-30T17:24:11.544Z,70.14
2018-04-30T17:27:14.920Z,68.94
2018-04-30T17:30:18.284Z,68.77
2018-04-30T17:33:21.619Z,68.39
2018-04-30T17:36:25.008Z,69.33
2018-04-30T17:39:28.302Z,70.82
2018-04-30T17:42:31.730Z,72.72
2018-04-30T17:45:35.108Z,74.60
2018-04-30T17:48:38.423Z,76.83
2018-04-30T17:51:41.824Z,78.41
2018-04-30T17:54:45.216Z,79.80
2018-04-30T17:57:48.631Z,81.30
2018-04-30T18:00:52.037Z,82.25
2018-04-30T18:03:55.382Z,82.98
2018-04-30T18:06:58.813Z,83.67
2018-04-30T18:10:02.067Z,84.53
2018-04-30T18:13:06.901Z,85.02
2018-04-30T18:16:10.348Z,85.43
2018-04-30T18:19:13.671Z,86.09
2018-04-30T18:22:17.073Z,87.11
2018-04-30T18:25:20.447Z,87.64
2018-04-30T18:28:23.815Z,88.27
2018-04-30T18:31:27.146Z,88.68
2018-04-30T18:34:30.558Z,89.01
2018-04-30T18:37:34.656Z,89.44
2018-04-30T18:40:38.001Z,89.70
2018-04-30T18:43:42.200Z,89.65
2018-04-30T18:46:45.672Z,89.65
2018-04-30T18:49:49.083Z,89.75
2018-04-30T18:52:52.437Z,90.00
2018-04-30T18:55:55.770Z,90.28
2018-04-30T18:58:59.130Z,90.37
2018-04-30T19:02:02.714Z,90.53
2018-04-30T19:05:06.385Z,90.86
2018-04-30T19:08:10.053Z,91.24
2018-04-30T19:11:13.721Z,91.65
2018-04-30T19:14:17.267Z,91.79
2018-04-30T19:17:20.629Z,91.76
2018-04-30T19:20:23.993Z,91.79
2018-04-30T19:23:27.398Z,91.72
2018-04-30T19:26:42.480Z,91.66
2018-04-30T19:30:00.200Z,91.60
2018-04-30T19:33:15.159Z,91.55
2018-04-30T19:36:18.531Z,91.50
2018-04-30T19:39:21.894Z,91.46
2018-04-30T19:42:26.049Z,91.28
2018-04-30T19:45:29.457Z,90.92
2018-04-30T19:48:32.787Z,90.64
2018-04-30T19:51:36.352Z,90.58
2018-04-30T19:54:39.672Z,90.61
2018-04-30T19:57:42.992Z,90.55
2018-04-30T20:00:46.320Z,90.46
2018-04-30T20:03:49.645Z,90.35
2018-04-30T20:06:53.426Z,89.72
2018-04-30T20:09:57.170Z,89.18
2018-04-30T20:13:00.924Z,89.32
2018-04-30T20:16:04.742Z,89.03
2018-04-30T20:19:08.488Z,88.42
2018-04-30T20:22:11.867Z,88.37
2018-04-30T20:25:16.355Z,88.09
2018-04-30T20:28:19.690Z,87.90
2018-04-30T20:31:23.125Z,88.36
2018-04-30T20:34:27.560Z,88.67
2018-04-30T20:37:32.198Z,88.70
2018-04-30T20:40:35.647Z,88.90
2018-04-30T20:43:40.566Z,89.15
2018-04-30T20:46:45.067Z,89.25
2018-04-30T20:49:48.544Z,89.21
2018-04-30T20:52:51.895Z,89.07
2018-04-30T20:55:56.359Z,88.80
2018-04-30T20:58:59.802Z,88.62
2018-04-30T21:02:03.215Z,88.77
2018-04-30T21:05:06.536Z,89.02
2018-04-30T21:08:10.710Z,89.34
2018-04-30T21:11:14.116Z,89.61
2018-04-30T21:14:17.529Z,89.82
2018-04-30T21:17:20.953Z,90.00
2018-04-30T21:20:24.226Z,90.21
2018-04-30T21:23:27.566Z,90.47
2018-04-30T21:26:31.011Z,90.63
2018-04-30T21:29:34.405Z,90.83
2018-04-30T21:32:37.808Z,90.93
2018-04-30T21:35:41.167Z,90.96
2018-04-30T21:38:44.497Z,91.08
2018-04-30T21:41:47.812Z,91.10
2018-04-30T21:44:51.202Z,90.93
2018-04-30T21:47:54.599Z,90.83
2018-04-30T21:50:57.993Z,90.78
2018-04-30T21:54:01.319Z,90.62
2018-04-30T21:57:04.633Z,90.31
2018-04-30T22:00:08.814Z,90.17
2018-04-30T22:03:12.170Z,90.08
2018-04-30T22:06:15.497Z,89.91
2018-04-30T22:09:18.906Z,89.93
2018-04-30T22:12:22.315Z,89.74
2018-04-30T22:15:25.703Z,89.61
2018-04-30T22:18:29.118Z,89.62
2018-04-30T22:21:33.961Z,89.58
2018-04-30T22:24:37.282Z,89.60
2018-04-30T22:27:41.368Z,89.43
2018-04-30T22:30:44.667Z,89.40
2018-04-30T22:33:48.757Z,89.50
2018-04-30T22:36:52.173Z,89.40
2018-04-30T22:39:55.565Z,89.59
2018-04-30T22:42:58.882Z,89.76
2018-04-30T22:46:02.272Z,89.65
2018-04-30T22:49:05.682Z,89.47
2018-04-30T22:52:09.764Z,89.40
2018-04-30T22:55:13.067Z,89.32
2018-04-30T22:58:16.394Z,89.36
2018-04-30T23:01:19.727Z,89.23
2018-04-30T23:04:23.790Z,89.07
2018-04-30T23:07:27.109Z,88.99
2018-04-30T23:10:31.237Z,88.80
2018-04-30T23:13:34.543Z,87.87
2018-04-30T23:16:38.712Z,85.97
2018-04-30T23:19:42.021Z,85.17
2018-04-30T23:22:45.335Z,84.96
2018-04-30T23:25:48.741Z,84.22
2018-04-30T23:28:52.085Z,84.09
2018-04-30T23:31:55.422Z,84.61
2018-04-30T23:34:58.725Z,85.11
2018-04-30T23:38:02.038Z,85.68
2018-04-30T23:41:05.376Z,86.27
2018-04-30T23:44:08.707Z,86.81
2018-04-30T23:47:12.032Z,87.28
2018-04-30T23:50:15.419Z,87.52
2018-04-30T23:53:18.750Z,87.98
2018-04-30T23:56:22.828Z,88.43
2018-04-30T23:59:26.208Z,88.66
